sensor_id;sensor_type;location;lat;lon;timestamp;pressure;altitude;pressure_sealevel;temperature;humidity
75543;BME280;64129;53.508;10.476;2024-02-15T00:02:23;101071.78;;;10.08;100.00
75543;BME280;64129;53.508;10.476;2024-02-15T00:04:49;101076.16;;;10.09;100.00
75543;BME280;64129;53.508;10.476;2024-02-15T00:07:16;101075.28;;;10.16;100.00
75543;BME280;64129;53.508;10.476;2024-02-15T00:09:43;101073.53;;;10.20;100.00
75543;BME280;64129;53.508;10.476;2024-02-15T00:12:09;101078.78;;;10.15;100.00
75543;BME280;64129;53.508;10.476;2024-02-15T00:14:36;101078.78;;;10.12;100.00
75543;BME280;64129;53.508;10.476;2024-02-15T00:17:04;101079.66;;;10.14;100.00
75543;BME280;64129;53.508;10.476;2024-02-15T00:19:31;101085.78;;;10.19;100.00
75543;BME280;64129;53.508;10.476;2024-02-15T00:21:58;101084.06;;;10.21;100.00
75543;BME280;64129;53.508;10.476;2024-02-15T00:24:24;101084.91;;;10.20;100.00
75543;BME280;64129;53.508;10.476;2024-02-15T00:26:51;101084.03;;;10.18;100.00
75543;BME280;64129;53.508;10.476;2024-02-15T00:29:18;101091.91;;;10.20;100.00
75543;BME280;64129;53.508;10.476;2024-02-15T00:31:44;101087.59;;;10.30;100.00
75543;BME280;64129;53.508;10.476;2024-02-15T00:34:11;101080.56;;;10.22;100.00
75543;BME280;64129;53.508;10.476;2024-02-15T00:36:38;101084.13;;;10.35;100.00
75543;BME280;64129;53.508;10.476;2024-02-15T00:39:04;101081.41;;;10.20;100.00
75543;BME280;64129;53.508;10.476;2024-02-15T00:41:32;101075.31;;;10.22;100.00
75543;BME280;64129;53.508;10.476;2024-02-15T00:44:00;101076.22;;;10.28;100.00
75543;BME280;64129;53.508;10.476;2024-02-15T00:46:26;101073.63;;;10.31;100.00
75543;BME280;64129;53.508;10.476;2024-02-15T00:48:56;101071.88;;;10.40;100.00
75543;BME280;64129;53.508;10.476;2024-02-15T00:51:24;101076.22;;;10.26;100.00
75543;BME280;64129;53.508;10.476;2024-02-15T00:53:50;101076.22;;;10.32;100.00
75543;BME280;64129;53.508;10.476;2024-02-15T00:56:17;101075.34;;;10.29;100.00
75543;BME280;64129;53.508;10.476;2024-02-15T00:58:44;101078.88;;;10.31;100.00
75543;BME280;64129;53.508;10.476;2024-02-15T01:01:10;101079.72;;;10.34;100.00
75543;BME280;64129;53.508;10.476;2024-02-15T01:03:37;101084.09;;;10.32;100.00
75543;BME280;64129;53.508;10.476;2024-02-15T01:06:04;101077.09;;;10.30;100.00
75543;BME280;64129;53.508;10.476;2024-02-15T01:08:32;101090.22;;;10.27;100.00
75543;BME280;64129;53.508;10.476;2024-02-15T01:10:59;101084.09;;;10.26;100.00
75543;BME280;64129;53.508;10.476;2024-02-15T01:13:25;101093.69;;;10.26;100.00
75543;BME280;64129;53.508;10.476;2024-02-15T01:15:52;101091.06;;;10.30;100.00
75543;BME280;64129;53.508;10.476;2024-02-15T01:18:19;101083.19;;;10.22;100.00
75543;BME280;64129;53.508;10.476;2024-02-15T01:20:46;101091.06;;;10.22;100.00
75543;BME280;64129;53.508;10.476;2024-02-15T01:23:12;101095.47;;;10.27;100.00
75543;BME280;64129;53.508;10.476;2024-02-15T01:25:39;101094.59;;;10.31;100.00
75543;BME280;64129;53.508;10.476;2024-02-15T01:28:06;101090.16;;;10.23;100.00
75543;BME280;64129;53.508;10.476;2024-02-15T01:30:32;101092.81;;;10.25;100.00
75543;BME280;64129;53.508;10.476;2024-02-15T01:32:59;101092.84;;;10.30;100.00
75543;BME280;64129;53.508;10.476;2024-02-15T01:35:27;101085.84;;;10.32;100.00
75543;BME280;64129;53.508;10.476;2024-02-15T01:37:53;101083.22;;;10.29;100.00
75543;BME280;64129;53.508;10.476;2024-02-15T01:40:20;101082.34;;;10.28;100.00
75543;BME280;64129;53.508;10.476;2024-02-15T01:42:47;101091.09;;;10.35;100.00
75543;BME280;64129;53.508;10.476;2024-02-15T01:45:16;101084.13;;;10.31;100.00
75543;BME280;64129;53.508;10.476;2024-02-15T01:47:43;101078.88;;;10.31;100.00
75543;BME280;64129;53.508;10.476;2024-02-15T01:50:11;101081.47;;;10.28;100.00
75543;BME280;64129;53.508;10.476;2024-02-15T01:52:40;101084.97;;;10.39;100.00
75543;BME280;64129;53.508;10.476;2024-02-15T01:55:07;101092.84;;;10.42;100.00
75543;BME280;64129;53.508;10.476;2024-02-15T01:57:35;101085.88;;;10.36;100.00
75543;BME280;64129;53.508;10.476;2024-02-15T02:00:06;101079.75;;;10.40;100.00
75543;BME280;64129;53.508;10.476;2024-02-15T02:02:38;101080.59;;;10.29;100.00
75543;BME280;64129;53.508;10.476;2024-02-15T02:05:05;101081.50;;;10.51;100.00
75543;BME280;64129;53.508;10.476;2024-02-15T02:07:32;101076.25;;;10.46;100.00
75543;BME280;64129;53.508;10.476;2024-02-15T02:09:59;101072.72;;;10.48;100.00
75543;BME280;64129;53.508;10.476;2024-02-15T02:12:25;101076.22;;;10.54;100.00
75543;BME280;64129;53.508;10.476;2024-02-15T02:14:54;101075.38;;;10.36;100.00
75543;BME280;64129;53.508;10.476;2024-02-15T02:17:20;101078.88;;;10.37;100.00
75543;BME280;64129;53.508;10.476;2024-02-15T02:19:48;101077.13;;;10.50;100.00
75543;BME280;64129;53.508;10.476;2024-02-15T02:22:18;101079.75;;;10.46;100.00
75543;BME280;64129;53.508;10.476;2024-02-15T02:25:07;101073.59;;;10.38;100.00
75543;BME280;64129;53.508;10.476;2024-02-15T02:27:35;101081.50;;;10.31;100.00
75543;BME280;64129;53.508;10.476;2024-02-15T02:30:15;101074.50;;;10.37;100.00
75543;BME280;64129;53.508;10.476;2024-02-15T02:32:45;101074.50;;;10.42;100.00
75543;BME280;64129;53.508;10.476;2024-02-15T02:35:15;101078.84;;;10.43;100.00
75543;BME280;64129;53.508;10.476;2024-02-15T02:37:42;101078.00;;;10.42;100.00
75543;BME280;64129;53.508;10.476;2024-02-15T02:40:09;101077.13;;;10.48;100.00
75543;BME280;64129;53.508;10.476;2024-02-15T02:42:56;101073.59;;;10.54;100.00
75543;BME280;64129;53.508;10.476;2024-02-15T02:45:25;101075.38;;;10.41;100.00
75543;BME280;64129;53.508;10.476;2024-02-15T02:47:52;101081.50;;;10.40;100.00
75543;BME280;64129;53.508;10.476;2024-02-15T02:50:21;101082.38;;;10.46;100.00
75543;BME280;64129;53.508;10.476;2024-02-15T02:52:47;101079.75;;;10.50;100.00
75543;BME280;64129;53.508;10.476;2024-02-15T02:55:15;101083.25;;;10.42;100.00
75543;BME280;64129;53.508;10.476;2024-02-15T02:57:42;101086.75;;;10.44;100.00
75543;BME280;64129;53.508;10.476;2024-02-15T03:00:17;101083.22;;;10.48;100.00
75543;BME280;64129;53.508;10.476;2024-02-15T03:02:45;101082.38;;;10.51;100.00
75543;BME280;64129;53.508;10.476;2024-02-15T03:05:12;101079.75;;;10.57;100.00
75543;BME280;64129;53.508;10.476;2024-02-15T03:07:40;101076.25;;;10.55;100.00
75543;BME280;64129;53.508;10.476;2024-02-15T03:10:10;101069.25;;;10.57;100.00
75543;BME280;64129;53.508;10.476;2024-02-15T03:12:40;101071.88;;;10.60;100.00
75543;BME280;64129;53.508;10.476;2024-02-15T03:15:07;101074.50;;;10.54;100.00
75543;BME280;64129;53.508;10.476;2024-02-15T03:17:42;101078.88;;;10.55;100.00
75543;BME280;64129;53.508;10.476;2024-02-15T03:20:10;101072.75;;;10.64;100.00
75543;BME280;64129;53.508;10.476;2024-02-15T03:22:39;101071.88;;;10.63;100.00
75543;BME280;64129;53.508;10.476;2024-02-15T03:25:06;101075.38;;;10.70;100.00
75543;BME280;64129;53.508;10.476;2024-02-15T03:27:35;101072.75;;;10.68;100.00
75543;BME280;64129;53.508;10.476;2024-02-15T03:30:03;101073.63;;;10.67;100.00
75543;BME280;64129;53.508;10.476;2024-02-15T03:32:30;101082.38;;;10.54;100.00
75543;BME280;64129;53.508;10.476;2024-02-15T03:34:57;101075.38;;;10.64;100.00
75543;BME280;64129;53.508;10.476;2024-02-15T03:37:24;101085.00;;;10.59;100.00
75543;BME280;64129;53.508;10.476;2024-02-15T03:39:50;101071.88;;;10.56;100.00
75543;BME280;64129;53.508;10.476;2024-02-15T03:42:17;101084.13;;;10.61;100.00
75543;BME280;64129;53.508;10.476;2024-02-15T03:44:43;101093.75;;;10.59;100.00
75543;BME280;64129;53.508;10.476;2024-02-15T03:47:10;101091.13;;;10.64;100.00
75543;BME280;64129;53.508;10.476;2024-02-15T03:49:39;101091.13;;;10.58;100.00
75543;BME280;64129;53.508;10.476;2024-02-15T03:52:08;101095.50;;;10.57;100.00
75543;BME280;64129;53.508;10.476;2024-02-15T03:54:37;101097.25;;;10.55;100.00
75543;BME280;64129;53.508;10.476;2024-02-15T03:57:04;101099.00;;;10.52;100.00
75543;BME280;64129;53.508;10.476;2024-02-15T03:59:32;101096.38;;;10.52;100.00
75543;BME280;64129;53.508;10.476;2024-02-15T04:02:01;101102.47;;;10.54;100.00
75543;BME280;64129;53.508;10.476;2024-02-15T04:04:29;101098.97;;;10.53;100.00
75543;BME280;64129;53.508;10.476;2024-02-15T04:06:56;101113.88;;;10.59;100.00
75543;BME280;64129;53.508;10.476;2024-02-15T04:09:23;101115.63;;;10.66;100.00
75543;BME280;64129;53.508;10.476;2024-02-15T04:11:50;101113.88;;;10.65;100.00
75543;BME280;64129;53.508;10.476;2024-02-15T04:14:19;101116.50;;;10.65;100.00
75543;BME280;64129;53.508;10.476;2024-02-15T04:16:46;101116.50;;;10.65;100.00
75543;BME280;64129;53.508;10.476;2024-02-15T04:19:12;101113.88;;;10.57;100.00
75543;BME280;64129;53.508;10.476;2024-02-15T04:21:39;101104.25;;;10.65;100.00
75543;BME280;64129;53.508;10.476;2024-02-15T04:24:06;101114.75;;;10.70;100.00
75543;BME280;64129;53.508;10.476;2024-02-15T04:26:32;101109.50;;;10.70;100.00
75543;BME280;64129;53.508;10.476;2024-02-15T04:28:59;101103.38;;;10.62;100.00
75543;BME280;64129;53.508;10.476;2024-02-15T04:31:26;101101.59;;;10.53;100.00
75543;BME280;64129;53.508;10.476;2024-02-15T04:33:53;101103.38;;;10.62;100.00
75543;BME280;64129;53.508;10.476;2024-02-15T04:36:21;101093.75;;;10.59;100.00
75543;BME280;64129;53.508;10.476;2024-02-15T04:38:52;101094.63;;;10.77;100.00
75543;BME280;64129;53.508;10.476;2024-02-15T04:41:18;101103.41;;;10.63;100.00
75543;BME280;64129;53.508;10.476;2024-02-15T04:43:46;101104.25;;;10.67;100.00
75543;BME280;64129;53.508;10.476;2024-02-15T04:46:13;101111.25;;;10.69;100.00
75543;BME280;64129;53.508;10.476;2024-02-15T04:48:41;101111.25;;;10.66;100.00
75543;BME280;64129;53.508;10.476;2024-02-15T04:51:11;101120.88;;;10.70;100.00
75543;BME280;64129;53.508;10.476;2024-02-15T04:53:38;101116.53;;;10.68;100.00
75543;BME280;64129;53.508;10.476;2024-02-15T04:56:05;101117.38;;;10.75;100.00
75543;BME280;64129;53.508;10.476;2024-02-15T04:58:40;101120.00;;;10.65;100.00
75543;BME280;64129;53.508;10.476;2024-02-15T05:01:16;101123.50;;;10.70;100.00
75543;BME280;64129;53.508;10.476;2024-02-15T05:03:44;101120.03;;;10.73;100.00
75543;BME280;64129;53.508;10.476;2024-02-15T05:06:11;101128.75;;;10.75;100.00
75543;BME280;64129;53.508;10.476;2024-02-15T05:08:39;101133.16;;;10.78;100.00
75543;BME280;64129;53.508;10.476;2024-02-15T05:11:10;101146.25;;;10.64;100.00
75543;BME280;64129;53.508;10.476;2024-02-15T05:13:44;101141.00;;;10.67;100.00
75543;BME280;64129;53.508;10.476;2024-02-15T05:16:13;101137.53;;;10.68;100.00
75543;BME280;64129;53.508;10.476;2024-02-15T05:18:40;101134.00;;;10.72;100.00
75543;BME280;64129;53.508;10.476;2024-02-15T05:21:07;101130.50;;;10.76;100.00
75543;BME280;64129;53.508;10.476;2024-02-15T05:23:36;101135.75;;;10.79;100.00
75543;BME280;64129;53.508;10.476;2024-02-15T05:26:04;101139.25;;;10.77;100.00
75543;BME280;64129;53.508;10.476;2024-02-15T05:28:30;101138.38;;;10.65;100.00
75543;BME280;64129;53.508;10.476;2024-02-15T05:31:13;101139.25;;;10.75;100.00
75543;BME280;64129;53.508;10.476;2024-02-15T05:33:52;101134.91;;;10.79;100.00
75543;BME280;64129;53.508;10.476;2024-02-15T05:36:20;101134.91;;;10.72;100.00
75543;BME280;64129;53.508;10.476;2024-02-15T05:38:51;101129.63;;;10.76;100.00
75543;BME280;64129;53.508;10.476;2024-02-15T05:41:18;101134.88;;;10.71;100.00
75543;BME280;64129;53.508;10.476;2024-02-15T05:43:46;101129.63;;;10.80;100.00
75543;BME280;64129;53.508;10.476;2024-02-15T05:46:14;101122.63;;;10.75;100.00
75543;BME280;64129;53.508;10.476;2024-02-15T05:48:41;101127.88;;;10.71;100.00
75543;BME280;64129;53.508;10.476;2024-02-15T05:51:08;101124.41;;;10.77;100.00
75543;BME280;64129;53.508;10.476;2024-02-15T05:53:35;101127.00;;;10.74;100.00
75543;BME280;64129;53.508;10.476;2024-02-15T05:56:03;101122.66;;;10.68;100.00
75543;BME280;64129;53.508;10.476;2024-02-15T05:58:40;101123.50;;;10.70;100.00
75543;BME280;64129;53.508;10.476;2024-02-15T06:01:06;101126.13;;;10.70;100.00
75543;BME280;64129;53.508;10.476;2024-02-15T06:03:34;101127.00;;;10.74;100.00
75543;BME280;64129;53.508;10.476;2024-02-15T06:06:04;101119.16;;;10.68;100.00
75543;BME280;64129;53.508;10.476;2024-02-15T06:08:35;101116.50;;;10.66;100.00
75543;BME280;64129;53.508;10.476;2024-02-15T06:11:03;101120.00;;;10.67;100.00
75543;BME280;64129;53.508;10.476;2024-02-15T06:13:30;101125.28;;;10.73;100.00
75543;BME280;64129;53.508;10.476;2024-02-15T06:15:57;101121.78;;;10.68;100.00
75543;BME280;64129;53.508;10.476;2024-02-15T06:18:25;101122.63;;;10.81;100.00
75543;BME280;64129;53.508;10.476;2024-02-15T06:20:54;101129.63;;;10.76;100.00
75543;BME280;64129;53.508;10.476;2024-02-15T06:23:23;101134.00;;;10.70;100.00
75543;BME280;64129;53.508;10.476;2024-02-15T06:25:52;101128.78;;;10.73;100.00
75543;BME280;64129;53.508;10.476;2024-02-15T06:28:22;101133.13;;;10.70;100.00
75543;BME280;64129;53.508;10.476;2024-02-15T06:31:08;101135.75;;;10.76;100.00
75543;BME280;64129;53.508;10.476;2024-02-15T06:33:54;101134.91;;;10.74;100.00
75543;BME280;64129;53.508;10.476;2024-02-15T06:37:00;101142.75;;;10.76;100.00
75543;BME280;64129;53.508;10.476;2024-02-15T06:39:45;101148.91;;;10.78;100.00
75543;BME280;64129;53.508;10.476;2024-02-15T06:42:13;101144.50;;;10.77;100.00
75543;BME280;64129;53.508;10.476;2024-02-15T06:44:45;101147.16;;;10.73;100.00
75543;BME280;64129;53.508;10.476;2024-02-15T06:47:13;101142.75;;;10.82;100.00
75543;BME280;64129;53.508;10.476;2024-02-15T06:49:40;101137.53;;;10.79;100.00
75543;BME280;64129;53.508;10.476;2024-02-15T06:52:10;101149.78;;;10.73;100.00
75543;BME280;64129;53.508;10.476;2024-02-15T06:54:41;101143.63;;;10.75;100.00
75543;BME280;64129;53.508;10.476;2024-02-15T06:57:08;101145.41;;;10.77;100.00
75543;BME280;64129;53.508;10.476;2024-02-15T06:59:35;101142.75;;;10.76;100.00
75543;BME280;64129;53.508;10.476;2024-02-15T07:02:03;101146.28;;;10.84;100.00
75543;BME280;64129;53.508;10.476;2024-02-15T07:04:34;101150.63;;;10.76;100.00
75543;BME280;64129;53.508;10.476;2024-02-15T07:07:00;101146.28;;;10.73;100.00
75543;BME280;64129;53.508;10.476;2024-02-15T07:09:28;101141.00;;;10.76;100.00
75543;BME280;64129;53.508;10.476;2024-02-15T07:11:55;101147.13;;;10.77;100.00
75543;BME280;64129;53.508;10.476;2024-02-15T07:14:22;101143.66;;;10.73;100.00
75543;BME280;64129;53.508;10.476;2024-02-15T07:16:49;101141.88;;;10.77;100.00
75543;BME280;64129;53.508;10.476;2024-02-15T07:19:17;101145.41;;;10.72;100.00
75543;BME280;64129;53.508;10.476;2024-02-15T07:21:44;101147.16;;;10.80;100.00
75543;BME280;64129;53.508;10.476;2024-02-15T07:24:13;101150.63;;;10.82;100.00
75543;BME280;64129;53.508;10.476;2024-02-15T07:26:40;101148.03;;;10.83;100.00
75543;BME280;64129;53.508;10.476;2024-02-15T07:29:07;101143.66;;;10.82;100.00
75543;BME280;64129;53.508;10.476;2024-02-15T07:31:34;101141.00;;;10.81;100.00
75543;BME280;64129;53.508;10.476;2024-02-15T07:34:01;101139.28;;;10.89;100.00
75543;BME280;64129;53.508;10.476;2024-02-15T07:36:27;101148.03;;;10.83;100.00
75543;BME280;64129;53.508;10.476;2024-02-15T07:38:54;101151.50;;;10.85;100.00
75543;BME280;64129;53.508;10.476;2024-02-15T07:41:27;101156.78;;;10.78;100.00
75543;BME280;64129;53.508;10.476;2024-02-15T07:43:54;101163.78;;;10.88;100.00
75543;BME280;64129;53.508;10.476;2024-02-15T07:46:22;101161.16;;;10.85;100.00
75543;BME280;64129;53.508;10.476;2024-02-15T07:48:48;101171.66;;;10.91;100.00
75543;BME280;64129;53.508;10.476;2024-02-15T07:51:20;101170.78;;;10.95;100.00
75543;BME280;64129;53.508;10.476;2024-02-15T07:53:47;101167.28;;;10.87;100.00
75543;BME280;64129;53.508;10.476;2024-02-15T07:56:15;101162.03;;;10.87;100.00
75543;BME280;64129;53.508;10.476;2024-02-15T07:58:42;101173.41;;;10.80;100.00
75543;BME280;64129;53.508;10.476;2024-02-15T08:01:14;101164.66;;;10.87;100.00
75543;BME280;64129;53.508;10.476;2024-02-15T08:03:41;101165.53;;;10.95;100.00
75543;BME280;64129;53.508;10.476;2024-02-15T08:06:14;101162.91;;;10.92;100.00
75543;BME280;64129;53.508;10.476;2024-02-15T08:08:46;101160.28;;;10.87;100.00
75543;BME280;64129;53.508;10.476;2024-02-15T08:11:14;101164.66;;;10.96;100.00
75543;BME280;64129;53.508;10.476;2024-02-15T08:13:45;101167.31;;;11.01;100.00
75543;BME280;64129;53.508;10.476;2024-02-15T08:16:17;101162.03;;;10.94;100.00
75543;BME280;64129;53.508;10.476;2024-02-15T08:18:44;101161.13;;;10.95;100.00
75543;BME280;64129;53.508;10.476;2024-02-15T08:21:12;101159.41;;;10.99;100.00
75543;BME280;64129;53.508;10.476;2024-02-15T08:23:39;101155.88;;;11.00;100.00
75543;BME280;64129;53.508;10.476;2024-02-15T08:26:05;101149.78;;;11.06;100.00
75543;BME280;64129;53.508;10.476;2024-02-15T08:28:32;101164.66;;;10.99;100.00
75543;BME280;64129;53.508;10.476;2024-02-15T08:30:58;101162.03;;;10.99;100.00
75543;BME280;64129;53.508;10.476;2024-02-15T08:33:25;101162.91;;;11.07;100.00
75543;BME280;64129;53.508;10.476;2024-02-15T08:35:54;101170.78;;;11.09;100.00
75543;BME280;64129;53.508;10.476;2024-02-15T08:38:22;101165.53;;;11.16;100.00
75543;BME280;64129;53.508;10.476;2024-02-15T08:40:49;101169.03;;;11.02;100.00
75543;BME280;64129;53.508;10.476;2024-02-15T08:43:16;101169.03;;;10.92;100.00
75543;BME280;64129;53.508;10.476;2024-02-15T08:45:43;101164.66;;;10.96;100.00
75543;BME280;64129;53.508;10.476;2024-02-15T08:48:10;101159.41;;;11.02;100.00
75543;BME280;64129;53.508;10.476;2024-02-15T08:50:38;101153.28;;;11.15;100.00
75543;BME280;64129;53.508;10.476;2024-02-15T08:53:05;101157.63;;;11.09;100.00
75543;BME280;64129;53.508;10.476;2024-02-15T08:55:33;101155.03;;;11.10;100.00
75543;BME280;64129;53.508;10.476;2024-02-15T08:58:02;101150.63;;;11.21;100.00
75543;BME280;64129;53.508;10.476;2024-02-15T09:00:30;101140.97;;;11.28;100.00
75543;BME280;64129;53.508;10.476;2024-02-15T09:02:56;101156.75;;;11.28;100.00
75543;BME280;64129;53.508;10.476;2024-02-15T09:05:23;101156.75;;;11.33;100.00
75543;BME280;64129;53.508;10.476;2024-02-15T09:07:50;101156.75;;;11.23;100.00
75543;BME280;64129;53.508;10.476;2024-02-15T09:10:18;101143.63;;;11.39;100.00
75543;BME280;64129;53.508;10.476;2024-02-15T09:12:45;101143.59;;;11.43;100.00
75543;BME280;64129;53.508;10.476;2024-02-15T09:15:14;101149.69;;;11.47;100.00
75543;BME280;64129;53.508;10.476;2024-02-15T09:17:41;101145.34;;;11.44;100.00
75543;BME280;64129;53.508;10.476;2024-02-15T09:20:10;101144.44;;;11.50;100.00
75543;BME280;64129;53.508;10.476;2024-02-15T09:22:51;101147.09;;;11.44;100.00
75543;BME280;64129;53.508;10.476;2024-02-15T09:25:18;101147.09;;;11.50;100.00
75543;BME280;64129;53.508;10.476;2024-02-15T09:27:45;101143.59;;;11.48;100.00
75543;BME280;64129;53.508;10.476;2024-02-15T09:30:12;101139.22;;;11.39;100.00
75543;BME280;64129;53.508;10.476;2024-02-15T09:32:39;101141.84;;;11.45;100.00
75543;BME280;64129;53.508;10.476;2024-02-15T09:35:06;101147.13;;;11.42;100.00
75543;BME280;64129;53.508;10.476;2024-02-15T09:37:42;101147.06;;;11.52;100.00
75543;BME280;64129;53.508;10.476;2024-02-15T09:40:11;101147.06;;;11.47;100.00
75543;BME280;64129;53.508;10.476;2024-02-15T09:42:38;101140.91;;;11.63;99.96
75543;BME280;64129;53.508;10.476;2024-02-15T09:45:08;101148.78;;;11.65;99.78
75543;BME280;64129;53.508;10.476;2024-02-15T09:47:39;101147.91;;;11.73;99.80
75543;BME280;64129;53.508;10.476;2024-02-15T09:50:11;101151.44;;;11.71;99.93
75543;BME280;64129;53.508;10.476;2024-02-15T09:53:00;101147.88;;;11.89;99.17
75543;BME280;64129;53.508;10.476;2024-02-15T09:55:29;101154.91;;;11.70;99.76
75543;BME280;64129;53.508;10.476;2024-02-15T09:57:56;101154.00;;;11.79;99.36
75543;BME280;64129;53.508;10.476;2024-02-15T10:00:33;101151.38;;;11.92;99.10
75543;BME280;64129;53.508;10.476;2024-02-15T10:03:08;101153.13;;;11.84;99.26
75543;BME280;64129;53.508;10.476;2024-02-15T10:05:39;101147.94;;;11.66;99.67
75543;BME280;64129;53.508;10.476;2024-02-15T10:08:07;101154.91;;;11.82;99.44
75543;BME280;64129;53.508;10.476;2024-02-15T10:10:46;101151.38;;;11.82;99.42
75543;BME280;64129;53.508;10.476;2024-02-15T10:13:25;101151.38;;;11.82;99.30
75543;BME280;64129;53.508;10.476;2024-02-15T10:15:52;101161.91;;;11.89;99.47
75543;BME280;64129;53.508;10.476;2024-02-15T10:18:22;101154.00;;;11.94;99.16
75543;BME280;64129;53.508;10.476;2024-02-15T10:20:59;101161.03;;;11.90;99.46
75543;BME280;64129;53.508;10.476;2024-02-15T10:23:38;101160.97;;;12.01;99.31
75543;BME280;64129;53.508;10.476;2024-02-15T10:26:32;101161.91;;;11.88;99.53
75543;BME280;64129;53.508;10.476;2024-02-15T10:29:11;101159.28;;;11.83;99.74
75543;BME280;64129;53.508;10.476;2024-02-15T10:31:59;101155.78;;;11.77;99.84
75543;BME280;64129;53.508;10.476;2024-02-15T10:34:33;101160.16;;;11.74;99.76
75543;BME280;64129;53.508;10.476;2024-02-15T10:37:13;101160.13;;;11.79;99.95
75543;BME280;64129;53.508;10.476;2024-02-15T10:39:40;101161.94;;;11.71;100.00
75543;BME280;64129;53.508;10.476;2024-02-15T10:42:40;101157.56;;;11.71;100.00
75543;BME280;64129;53.508;10.476;2024-02-15T10:45:30;101156.69;;;11.85;99.68
75543;BME280;64129;53.508;10.476;2024-02-15T10:48:12;101165.44;;;11.85;99.87
75543;BME280;64129;53.508;10.476;2024-02-15T10:51:09;101157.53;;;11.84;99.66
75543;BME280;64129;53.508;10.476;2024-02-15T10:53:46;101154.88;;;11.79;99.81
75543;BME280;64129;53.508;10.476;2024-02-15T10:56:34;101159.28;;;11.77;99.37
75543;BME280;64129;53.508;10.476;2024-02-15T10:59:21;101162.69;;;12.07;98.43
75543;BME280;64129;53.508;10.476;2024-02-15T11:02:37;101151.31;;;12.05;98.33
75543;BME280;64129;53.508;10.476;2024-02-15T11:05:06;101149.56;;;12.08;98.60
75543;BME280;64129;53.508;10.476;2024-02-15T11:07:50;101146.00;;;12.12;98.28
75543;BME280;64129;53.508;10.476;2024-02-15T11:10:31;101142.53;;;12.10;97.75
75543;BME280;64129;53.508;10.476;2024-02-15T11:13:07;101133.75;;;12.10;98.78
75543;BME280;64129;53.508;10.476;2024-02-15T11:15:47;101135.41;;;12.29;97.78
75543;BME280;64129;53.508;10.476;2024-02-15T11:18:47;101134.63;;;12.13;98.06
75543;BME280;64129;53.508;10.476;2024-02-15T11:24:37;101131.91;;;12.25;98.18
75543;BME280;64129;53.508;10.476;2024-02-15T11:27:12;101129.22;;;12.35;97.84
75543;BME280;64129;53.508;10.476;2024-02-15T11:30:01;101121.44;;;12.18;98.43
75543;BME280;64129;53.508;10.476;2024-02-15T11:32:47;101122.28;;;12.21;98.30
75543;BME280;64129;53.508;10.476;2024-02-15T11:35:22;101116.09;;;12.32;97.66
75543;BME280;64129;53.508;10.476;2024-02-15T11:43:47;101118.78;;;12.21;97.90
75543;BME280;64129;53.508;10.476;2024-02-15T11:46:39;101112.63;;;12.27;97.17
75543;BME280;64129;53.508;10.476;2024-02-15T11:49:17;101114.31;;;12.35;97.77
75543;BME280;64129;53.508;10.476;2024-02-15T11:51:48;101105.66;;;12.15;97.94
75543;BME280;64129;53.508;10.476;2024-02-15T11:54:34;101110.00;;;12.23;98.04
75543;BME280;64129;53.508;10.476;2024-02-15T11:57:15;101098.53;;;12.31;97.71
75543;BME280;64129;53.508;10.476;2024-02-15T12:00:06;101110.94;;;12.13;97.95
75543;BME280;64129;53.508;10.476;2024-02-15T12:03:41;101102.13;;;12.16;98.61
75543;BME280;64129;53.508;10.476;2024-02-15T12:06:38;101098.56;;;12.28;98.20
75543;BME280;64129;53.508;10.476;2024-02-15T12:09:39;101095.94;;;12.24;97.81
75543;BME280;64129;53.508;10.476;2024-02-15T12:12:24;101090.63;;;12.34;97.94
75543;BME280;64129;53.508;10.476;2024-02-15T12:15:33;101085.44;;;12.24;97.88
75543;BME280;64129;53.508;10.476;2024-02-15T12:18:25;101089.81;;;12.27;97.88
75543;BME280;64129;53.508;10.476;2024-02-15T12:21:30;101084.59;;;12.15;98.73
75543;BME280;64129;53.508;10.476;2024-02-15T12:24:01;101087.22;;;12.18;97.92
75543;BME280;64129;53.508;10.476;2024-02-15T12:26:45;101081.81;;;12.39;97.89
75543;BME280;64129;53.508;10.476;2024-02-15T12:29:23;101074.94;;;12.18;98.62
75543;BME280;64129;53.508;10.476;2024-02-15T12:32:03;101069.69;;;12.18;98.24
75543;BME280;64129;53.508;10.476;2024-02-15T12:34:40;101067.06;;;12.18;98.19
75543;BME280;64129;53.508;10.476;2024-02-15T12:37:21;101068.81;;;12.16;98.72
75543;BME280;64129;53.508;10.476;2024-02-15T12:39:50;101073.22;;;12.14;98.95
75543;BME280;64129;53.508;10.476;2024-02-15T12:42:51;101073.97;;;12.30;98.62
75543;BME280;64129;53.508;10.476;2024-02-15T12:45:36;101069.69;;;12.15;98.79
75543;BME280;64129;53.508;10.476;2024-02-15T12:48:11;101072.31;;;12.17;98.65
75543;BME280;64129;53.508;10.476;2024-02-15T12:50:41;101071.41;;;12.22;98.84
75543;BME280;64129;53.508;10.476;2024-02-15T12:53:22;101057.44;;;12.11;98.77
75543;BME280;64129;53.508;10.476;2024-02-15T12:55:57;101068.88;;;12.06;99.38
75543;BME280;64129;53.508;10.476;2024-02-15T12:58:27;101065.31;;;12.11;99.39
75543;BME280;64129;53.508;10.476;2024-02-15T13:00:59;101071.44;;;12.18;99.08
75543;BME280;64129;53.508;10.476;2024-02-15T13:03:52;101064.41;;;12.18;98.92
75543;BME280;64129;53.508;10.476;2024-02-15T13:06:19;101059.13;;;12.20;98.85